sensor_id;sensor_type;location;lat;lon;timestamp;P1;durP1;ratioP1;P2;durP2;ratioP2
82028;SDS011;71590;52.216;13.448;2023-08-24T00:01:49;5.53;;;4.67;;
82028;SDS011;71590;52.216;13.448;2023-08-24T00:06:50;6.67;;;4.77;;
82028;SDS011;71590;52.216;13.448;2023-08-24T00:11:51;7.53;;;4.80;;
82028;SDS011;71590;52.216;13.448;2023-08-24T00:16:53;4.97;;;4.17;;
82028;SDS011;71590;52.216;13.448;2023-08-24T00:21:54;6.43;;;5.17;;
82028;SDS011;71590;52.216;13.448;2023-08-24T00:26:55;7.00;;;4.57;;
82028;SDS011;71590;52.216;13.448;2023-08-24T00:31:56;5.10;;;4.57;;
82028;SDS011;71590;52.216;13.448;2023-08-24T00:36:57;6.57;;;4.60;;
82028;SDS011;71590;52.216;13.448;2023-08-24T00:41:58;7.07;;;4.10;;
82028;SDS011;71590;52.216;13.448;2023-08-24T00:46:59;7.67;;;5.00;;
82028;SDS011;71590;52.216;13.448;2023-08-24T00:52:00;5.37;;;4.97;;
82028;SDS011;71590;52.216;13.448;2023-08-24T00:57:01;5.63;;;4.97;;
82028;SDS011;71590;52.216;13.448;2023-08-24T01:02:03;5.73;;;4.90;;
82028;SDS011;71590;52.216;13.448;2023-08-24T01:07:04;8.47;;;4.60;;
82028;SDS011;71590;52.216;13.448;2023-08-24T01:17:06;5.60;;;5.10;;
82028;SDS011;71590;52.216;13.448;2023-08-24T01:22:18;5.47;;;5.07;;
82028;SDS011;71590;52.216;13.448;2023-08-24T01:27:21;5.10;;;4.47;;
82028;SDS011;71590;52.216;13.448;2023-08-24T01:32:22;5.37;;;4.73;;
82028;SDS011;71590;52.216;13.448;2023-08-24T01:37:23;5.23;;;4.70;;
82028;SDS011;71590;52.216;13.448;2023-08-24T01:42:26;5.27;;;4.77;;
82028;SDS011;71590;52.216;13.448;2023-08-24T01:47:27;5.00;;;4.50;;
82028;SDS011;71590;52.216;13.448;2023-08-24T01:52:29;6.80;;;4.87;;
82028;SDS011;71590;52.216;13.448;2023-08-24T01:57:30;5.43;;;4.33;;
82028;SDS011;71590;52.216;13.448;2023-08-24T02:02:31;5.70;;;4.50;;
82028;SDS011;71590;52.216;13.448;2023-08-24T02:07:33;5.10;;;4.60;;
82028;SDS011;71590;52.216;13.448;2023-08-24T02:12:34;6.03;;;5.40;;
82028;SDS011;71590;52.216;13.448;2023-08-24T02:17:35;5.03;;;4.73;;
82028;SDS011;71590;52.216;13.448;2023-08-24T02:22:36;5.60;;;5.20;;
82028;SDS011;71590;52.216;13.448;2023-08-24T02:27:37;5.43;;;5.00;;
82028;SDS011;71590;52.216;13.448;2023-08-24T02:32:39;5.40;;;4.93;;
82028;SDS011;71590;52.216;13.448;2023-08-24T02:37:39;5.67;;;5.17;;
82028;SDS011;71590;52.216;13.448;2023-08-24T02:42:40;6.20;;;5.60;;
82028;SDS011;71590;52.216;13.448;2023-08-24T02:47:41;6.83;;;6.10;;
82028;SDS011;71590;52.216;13.448;2023-08-24T02:52:42;6.23;;;5.63;;
82028;SDS011;71590;52.216;13.448;2023-08-24T02:57:43;6.10;;;5.70;;
82028;SDS011;71590;52.216;13.448;2023-08-24T03:02:44;6.23;;;5.33;;
82028;SDS011;71590;52.216;13.448;2023-08-24T03:07:45;6.43;;;5.83;;
82028;SDS011;71590;52.216;13.448;2023-08-24T03:12:46;6.43;;;5.30;;
82028;SDS011;71590;52.216;13.448;2023-08-24T03:17:47;5.83;;;5.33;;
82028;SDS011;71590;52.216;13.448;2023-08-24T03:22:48;5.90;;;5.40;;
82028;SDS011;71590;52.216;13.448;2023-08-24T03:27:49;7.33;;;5.47;;
82028;SDS011;71590;52.216;13.448;2023-08-24T03:32:51;6.13;;;5.23;;
82028;SDS011;71590;52.216;13.448;2023-08-24T03:37:52;5.93;;;5.33;;
82028;SDS011;71590;52.216;13.448;2023-08-24T03:42:53;5.77;;;4.97;;
82028;SDS011;71590;52.216;13.448;2023-08-24T03:47:54;6.10;;;5.60;;
82028;SDS011;71590;52.216;13.448;2023-08-24T03:52:55;7.20;;;5.30;;
82028;SDS011;71590;52.216;13.448;2023-08-24T03:57:57;5.37;;;4.87;;
82028;SDS011;71590;52.216;13.448;2023-08-24T04:02:59;5.50;;;5.00;;
82028;SDS011;71590;52.216;13.448;2023-08-24T04:08:02;5.90;;;5.30;;
82028;SDS011;71590;52.216;13.448;2023-08-24T04:13:04;7.13;;;5.03;;
82028;SDS011;71590;52.216;13.448;2023-08-24T04:18:05;5.43;;;4.60;;
82028;SDS011;71590;52.216;13.448;2023-08-24T04:23:07;5.10;;;4.30;;
82028;SDS011;71590;52.216;13.448;2023-08-24T04:28:08;7.30;;;4.50;;
82028;SDS011;71590;52.216;13.448;2023-08-24T04:33:08;4.77;;;4.37;;
82028;SDS011;71590;52.216;13.448;2023-08-24T04:38:09;7.53;;;4.63;;
82028;SDS011;71590;52.216;13.448;2023-08-24T04:43:10;5.70;;;5.03;;
82028;SDS011;71590;52.216;13.448;2023-08-24T04:48:11;5.37;;;4.87;;
82028;SDS011;71590;52.216;13.448;2023-08-24T04:53:13;5.17;;;4.63;;
82028;SDS011;71590;52.216;13.448;2023-08-24T04:58:14;5.83;;;4.43;;
82028;SDS011;71590;52.216;13.448;2023-08-24T05:03:15;5.30;;;4.87;;
82028;SDS011;71590;52.216;13.448;2023-08-24T05:08:16;5.87;;;4.40;;
82028;SDS011;71590;52.216;13.448;2023-08-24T05:13:17;5.70;;;4.83;;
82028;SDS011;71590;52.216;13.448;2023-08-24T05:18:18;8.10;;;6.03;;
82028;SDS011;71590;52.216;13.448;2023-08-24T05:23:19;5.00;;;4.60;;
82028;SDS011;71590;52.216;13.448;2023-08-24T05:28:20;5.13;;;4.60;;
82028;SDS011;71590;52.216;13.448;2023-08-24T05:33:21;8.27;;;4.70;;
82028;SDS011;71590;52.216;13.448;2023-08-24T05:38:23;7.53;;;4.57;;
82028;SDS011;71590;52.216;13.448;2023-08-24T05:43:24;4.77;;;4.37;;
82028;SDS011;71590;52.216;13.448;2023-08-24T05:48:25;4.60;;;4.30;;
82028;SDS011;71590;52.216;13.448;2023-08-24T05:53:26;4.90;;;4.50;;
82028;SDS011;71590;52.216;13.448;2023-08-24T05:58:27;4.63;;;4.10;;
82028;SDS011;71590;52.216;13.448;2023-08-24T06:03:27;4.73;;;4.33;;
82028;SDS011;71590;52.216;13.448;2023-08-24T06:08:28;4.50;;;4.10;;
82028;SDS011;71590;52.216;13.448;2023-08-24T06:13:30;4.87;;;4.47;;
82028;SDS011;71590;52.216;13.448;2023-08-24T06:18:31;5.37;;;4.87;;
82028;SDS011;71590;52.216;13.448;2023-08-24T06:23:32;5.87;;;4.30;;
82028;SDS011;71590;52.216;13.448;2023-08-24T06:28:33;4.90;;;4.50;;
82028;SDS011;71590;52.216;13.448;2023-08-24T06:33:34;4.43;;;4.03;;
82028;SDS011;71590;52.216;13.448;2023-08-24T06:38:38;4.17;;;3.87;;
82028;SDS011;71590;52.216;13.448;2023-08-24T06:43:39;5.80;;;4.27;;
82028;SDS011;71590;52.216;13.448;2023-08-24T06:48:40;5.43;;;4.20;;
82028;SDS011;71590;52.216;13.448;2023-08-24T06:53:43;5.70;;;4.23;;
82028;SDS011;71590;52.216;13.448;2023-08-24T06:58:47;4.73;;;4.33;;
82028;SDS011;71590;52.216;13.448;2023-08-24T07:03:48;5.20;;;4.13;;
82028;SDS011;71590;52.216;13.448;2023-08-24T07:08:49;4.07;;;3.77;;
82028;SDS011;71590;52.216;13.448;2023-08-24T07:13:50;4.50;;;4.00;;
82028;SDS011;71590;52.216;13.448;2023-08-24T07:18:52;4.10;;;3.60;;
82028;SDS011;71590;52.216;13.448;2023-08-24T07:23:53;5.20;;;3.83;;
82028;SDS011;71590;52.216;13.448;2023-08-24T07:28:54;7.73;;;3.60;;
82028;SDS011;71590;52.216;13.448;2023-08-24T07:33:58;5.18;;;3.83;;
82028;SDS011;71590;52.216;13.448;2023-08-24T07:38:59;5.47;;;4.10;;
82028;SDS011;71590;52.216;13.448;2023-08-24T07:44:00;4.53;;;3.47;;
82028;SDS011;71590;52.216;13.448;2023-08-24T07:49:02;3.47;;;2.92;;
82028;SDS011;71590;52.216;13.448;2023-08-24T07:54:03;5.15;;;3.08;;
82028;SDS011;71590;52.216;13.448;2023-08-24T07:59:04;3.92;;;2.75;;
82028;SDS011;71590;52.216;13.448;2023-08-24T08:04:05;4.25;;;2.78;;
82028;SDS011;71590;52.216;13.448;2023-08-24T08:09:06;4.10;;;2.85;;
82028;SDS011;71590;52.216;13.448;2023-08-24T08:14:10;3.03;;;2.70;;
82028;SDS011;71590;52.216;13.448;2023-08-24T08:19:11;4.53;;;2.58;;
82028;SDS011;71590;52.216;13.448;2023-08-24T08:24:12;3.95;;;2.63;;
82028;SDS011;71590;52.216;13.448;2023-08-24T08:29:13;5.28;;;2.42;;
82028;SDS011;71590;52.216;13.448;2023-08-24T08:34:15;3.75;;;2.55;;
82028;SDS011;71590;52.216;13.448;2023-08-24T08:39:17;5.07;;;2.88;;
82028;SDS011;71590;52.216;13.448;2023-08-24T08:44:18;3.95;;;2.55;;
82028;SDS011;71590;52.216;13.448;2023-08-24T08:49:19;6.18;;;2.70;;
82028;SDS011;71590;52.216;13.448;2023-08-24T08:54:20;5.63;;;2.92;;
82028;SDS011;71590;52.216;13.448;2023-08-24T08:59:21;3.35;;;2.20;;
82028;SDS011;71590;52.216;13.448;2023-08-24T09:04:23;3.30;;;2.70;;
82028;SDS011;71590;52.216;13.448;2023-08-24T09:09:25;4.32;;;2.22;;
82028;SDS011;71590;52.216;13.448;2023-08-24T09:14:27;4.43;;;2.30;;
82028;SDS011;71590;52.216;13.448;2023-08-24T09:19:33;3.03;;;2.10;;
82028;SDS011;71590;52.216;13.448;2023-08-24T09:24:40;3.25;;;2.25;;
82028;SDS011;71590;52.216;13.448;2023-08-24T09:29:41;6.57;;;2.33;;
82028;SDS011;71590;52.216;13.448;2023-08-24T09:34:44;2.63;;;2.20;;
82028;SDS011;71590;52.216;13.448;2023-08-24T09:39:45;4.35;;;2.42;;
82028;SDS011;71590;52.216;13.448;2023-08-24T09:44:46;4.65;;;2.33;;
82028;SDS011;71590;52.216;13.448;2023-08-24T09:49:47;8.73;;;2.47;;
82028;SDS011;71590;52.216;13.448;2023-08-24T09:54:49;3.45;;;2.45;;
82028;SDS011;71590;52.216;13.448;2023-08-24T09:59:51;4.38;;;2.45;;
82028;SDS011;71590;52.216;13.448;2023-08-24T10:04:52;3.83;;;2.60;;
82028;SDS011;71590;52.216;13.448;2023-08-24T10:09:58;6.10;;;2.13;;
82028;SDS011;71590;52.216;13.448;2023-08-24T10:15:04;3.78;;;2.60;;
82028;SDS011;71590;52.216;13.448;2023-08-24T10:20:07;5.93;;;2.28;;
82028;SDS011;71590;52.216;13.448;2023-08-24T10:25:09;2.30;;;2.10;;
82028;SDS011;71590;52.216;13.448;2023-08-24T10:30:11;4.72;;;2.53;;
82028;SDS011;71590;52.216;13.448;2023-08-24T10:35:12;5.38;;;2.40;;
82028;SDS011;71590;52.216;13.448;2023-08-24T10:40:16;2.72;;;2.50;;
82028;SDS011;71590;52.216;13.448;2023-08-24T10:45:53;4.55;;;2.72;;
82028;SDS011;71590;52.216;13.448;2023-08-24T10:56:16;3.70;;;2.60;;
82028;SDS011;71590;52.216;13.448;2023-08-24T11:01:18;3.35;;;2.40;;
82028;SDS011;71590;52.216;13.448;2023-08-24T11:06:23;4.88;;;2.90;;
82028;SDS011;71590;52.216;13.448;2023-08-24T11:11:25;3.28;;;2.65;;
82028;SDS011;71590;52.216;13.448;2023-08-24T11:16:39;4.22;;;2.80;;
82028;SDS011;71590;52.216;13.448;2023-08-24T11:21:40;3.40;;;2.58;;
82028;SDS011;71590;52.216;13.448;2023-08-24T11:26:42;4.25;;;2.60;;
82028;SDS011;71590;52.216;13.448;2023-08-24T11:31:43;5.00;;;2.58;;
82028;SDS011;71590;52.216;13.448;2023-08-24T11:36:46;3.78;;;2.90;;
82028;SDS011;71590;52.216;13.448;2023-08-24T11:46:58;3.47;;;2.40;;
82028;SDS011;71590;52.216;13.448;2023-08-24T11:52:01;3.38;;;2.58;;
82028;SDS011;71590;52.216;13.448;2023-08-24T11:57:05;2.88;;;2.38;;
82028;SDS011;71590;52.216;13.448;2023-08-24T12:02:06;4.40;;;2.90;;
82028;SDS011;71590;52.216;13.448;2023-08-24T12:07:12;4.60;;;2.92;;
82028;SDS011;71590;52.216;13.448;2023-08-24T12:17:15;3.55;;;3.17;;
82028;SDS011;71590;52.216;13.448;2023-08-24T12:22:16;3.42;;;2.45;;
82028;SDS011;71590;52.216;13.448;2023-08-24T12:27:18;4.07;;;2.70;;
82028;SDS011;71590;52.216;13.448;2023-08-24T12:32:20;4.68;;;2.90;;
82028;SDS011;71590;52.216;13.448;2023-08-24T12:37:25;3.60;;;2.90;;
82028;SDS011;71590;52.216;13.448;2023-08-24T12:42:26;2.90;;;2.70;;
82028;SDS011;71590;52.216;13.448;2023-08-24T12:47:27;3.38;;;2.70;;
82028;SDS011;71590;52.216;13.448;2023-08-24T12:52:28;3.88;;;3.15;;
82028;SDS011;71590;52.216;13.448;2023-08-24T12:57:29;3.65;;;2.72;;
82028;SDS011;71590;52.216;13.448;2023-08-24T13:02:30;4.63;;;3.10;;
82028;SDS011;71590;52.216;13.448;2023-08-24T13:07:31;4.55;;;2.58;;
82028;SDS011;71590;52.216;13.448;2023-08-24T13:12:33;5.88;;;2.90;;
82028;SDS011;71590;52.216;13.448;2023-08-24T13:17:34;5.83;;;3.23;;
82028;SDS011;71590;52.216;13.448;2023-08-24T13:22:38;4.15;;;2.85;;
82028;SDS011;71590;52.216;13.448;2023-08-24T13:27:39;9.68;;;3.15;;
82028;SDS011;71590;52.216;13.448;2023-08-24T13:32:40;3.30;;;3.00;;
82028;SDS011;71590;52.216;13.448;2023-08-24T13:37:41;5.10;;;3.10;;
82028;SDS011;71590;52.216;13.448;2023-08-24T13:42:42;5.65;;;2.72;;
82028;SDS011;71590;52.216;13.448;2023-08-24T13:47:43;3.65;;;3.35;;
82028;SDS011;71590;52.216;13.448;2023-08-24T13:52:44;4.22;;;3.30;;
82028;SDS011;71590;52.216;13.448;2023-08-24T13:57:45;3.35;;;3.10;;
82028;SDS011;71590;52.216;13.448;2023-08-24T14:02:46;3.50;;;3.15;;
82028;SDS011;71590;52.216;13.448;2023-08-24T14:07:48;7.50;;;3.10;;
82028;SDS011;71590;52.216;13.448;2023-08-24T14:12:49;3.67;;;3.25;;
82028;SDS011;71590;52.216;13.448;2023-08-24T14:17:50;3.40;;;3.13;;
82028;SDS011;71590;52.216;13.448;2023-08-24T14:22:51;6.25;;;3.65;;
82028;SDS011;71590;52.216;13.448;2023-08-24T14:27:52;3.97;;;3.30;;
82028;SDS011;71590;52.216;13.448;2023-08-24T14:32:53;3.70;;;3.50;;
82028;SDS011;71590;52.216;13.448;2023-08-24T14:37:54;3.22;;;2.90;;
82028;SDS011;71590;52.216;13.448;2023-08-24T14:42:55;4.72;;;3.70;;
82028;SDS011;71590;52.216;13.448;2023-08-24T14:47:56;3.63;;;3.33;;
82028;SDS011;71590;52.216;13.448;2023-08-24T14:52:57;3.58;;;3.30;;
82028;SDS011;71590;52.216;13.448;2023-08-24T14:57:58;7.28;;;3.05;;
82028;SDS011;71590;52.216;13.448;2023-08-24T15:02:59;5.18;;;3.47;;
82028;SDS011;71590;52.216;13.448;2023-08-24T15:08:00;5.95;;;4.10;;
82028;SDS011;71590;52.216;13.448;2023-08-24T15:13:01;4.75;;;3.35;;
82028;SDS011;71590;52.216;13.448;2023-08-24T15:18:03;3.92;;;3.25;;
82028;SDS011;71590;52.216;13.448;2023-08-24T15:23:04;4.15;;;3.08;;
82028;SDS011;71590;52.216;13.448;2023-08-24T15:28:06;5.63;;;3.80;;
82028;SDS011;71590;52.216;13.448;2023-08-24T15:33:07;5.07;;;3.65;;
82028;SDS011;71590;52.216;13.448;2023-08-24T15:38:09;3.53;;;3.22;;
82028;SDS011;71590;52.216;13.448;2023-08-24T15:43:10;4.38;;;3.80;;
82028;SDS011;71590;52.216;13.448;2023-08-24T15:48:14;6.05;;;3.30;;
82028;SDS011;71590;52.216;13.448;2023-08-24T15:53:15;5.18;;;3.40;;
82028;SDS011;71590;52.216;13.448;2023-08-24T15:58:16;4.53;;;3.00;;
82028;SDS011;71590;52.216;13.448;2023-08-24T16:03:19;5.25;;;3.15;;
82028;SDS011;71590;52.216;13.448;2023-08-24T16:08:20;4.03;;;3.35;;
82028;SDS011;71590;52.216;13.448;2023-08-24T16:13:21;6.30;;;3.20;;
82028;SDS011;71590;52.216;13.448;2023-08-24T16:18:22;3.72;;;2.92;;
82028;SDS011;71590;52.216;13.448;2023-08-24T16:23:24;7.85;;;3.35;;
82028;SDS011;71590;52.216;13.448;2023-08-24T16:28:26;5.75;;;2.78;;
82028;SDS011;71590;52.216;13.448;2023-08-24T16:33:27;3.35;;;2.97;;
82028;SDS011;71590;52.216;13.448;2023-08-24T16:38:28;3.70;;;3.40;;
82028;SDS011;71590;52.216;13.448;2023-08-24T16:43:29;2.92;;;2.72;;
82028;SDS011;71590;52.216;13.448;2023-08-24T16:48:30;5.15;;;3.65;;
82028;SDS011;71590;52.216;13.448;2023-08-24T16:53:31;3.75;;;3.17;;
82028;SDS011;71590;52.216;13.448;2023-08-24T16:58:32;3.28;;;2.97;;
82028;SDS011;71590;52.216;13.448;2023-08-24T17:03:33;4.55;;;3.00;;
82028;SDS011;71590;52.216;13.448;2023-08-24T17:08:34;6.95;;;3.28;;
82028;SDS011;71590;52.216;13.448;2023-08-24T17:13:35;3.30;;;3.00;;
82028;SDS011;71590;52.216;13.448;2023-08-24T17:18:36;3.83;;;3.35;;
82028;SDS011;71590;52.216;13.448;2023-08-24T17:23:37;4.80;;;2.90;;
82028;SDS011;71590;52.216;13.448;2023-08-24T17:28:39;4.35;;;3.65;;
82028;SDS011;71590;52.216;13.448;2023-08-24T17:33:40;8.32;;;3.25;;
82028;SDS011;71590;52.216;13.448;2023-08-24T17:38:41;3.47;;;3.17;;
82028;SDS011;71590;52.216;13.448;2023-08-24T17:43:41;4.35;;;3.70;;
82028;SDS011;71590;52.216;13.448;2023-08-24T17:48:42;3.72;;;3.10;;
82028;SDS011;71590;52.216;13.448;2023-08-24T17:53:43;3.40;;;3.10;;
82028;SDS011;71590;52.216;13.448;2023-08-24T17:58:44;6.75;;;3.53;;
82028;SDS011;71590;52.216;13.448;2023-08-24T18:03:45;5.72;;;3.63;;
82028;SDS011;71590;52.216;13.448;2023-08-24T18:08:46;4.32;;;3.58;;
82028;SDS011;71590;52.216;13.448;2023-08-24T18:13:47;5.78;;;3.85;;
82028;SDS011;71590;52.216;13.448;2023-08-24T18:18:48;7.88;;;3.90;;
82028;SDS011;71590;52.216;13.448;2023-08-24T18:23:49;4.85;;;3.90;;
82028;SDS011;71590;52.216;13.448;2023-08-24T18:28:50;6.40;;;3.70;;
82028;SDS011;71590;52.216;13.448;2023-08-24T18:33:51;7.40;;;4.40;;
82028;SDS011;71590;52.216;13.448;2023-08-24T18:38:52;4.95;;;4.38;;
82028;SDS011;71590;52.216;13.448;2023-08-24T18:43:53;6.18;;;4.53;;
82028;SDS011;71590;52.216;13.448;2023-08-24T18:48:54;4.85;;;4.28;;
82028;SDS011;71590;52.216;13.448;2023-08-24T18:53:55;5.40;;;4.07;;
82028;SDS011;71590;52.216;13.448;2023-08-24T18:58:56;6.50;;;4.07;;
82028;SDS011;71590;52.216;13.448;2023-08-24T19:03:57;7.07;;;4.22;;
82028;SDS011;71590;52.216;13.448;2023-08-24T19:08:58;6.90;;;4.68;;
82028;SDS011;71590;52.216;13.448;2023-08-24T19:14:01;5.43;;;4.68;;
82028;SDS011;71590;52.216;13.448;2023-08-24T19:19:05;5.35;;;4.03;;
82028;SDS011;71590;52.216;13.448;2023-08-24T19:24:06;7.40;;;4.20;;
82028;SDS011;71590;52.216;13.448;2023-08-24T19:29:09;5.20;;;4.70;;
82028;SDS011;71590;52.216;13.448;2023-08-24T19:34:10;5.82;;;4.45;;
82028;SDS011;71590;52.216;13.448;2023-08-24T19:39:11;5.07;;;3.95;;
82028;SDS011;71590;52.216;13.448;2023-08-24T19:44:13;5.20;;;4.18;;
82028;SDS011;71590;52.216;13.448;2023-08-24T19:49:14;7.32;;;4.20;;
82028;SDS011;71590;52.216;13.448;2023-08-24T19:54:15;6.00;;;4.07;;
82028;SDS011;71590;52.216;13.448;2023-08-24T19:59:16;5.15;;;4.70;;
82028;SDS011;71590;52.216;13.448;2023-08-24T20:04:17;5.68;;;4.80;;
82028;SDS011;71590;52.216;13.448;2023-08-24T20:09:18;8.60;;;4.70;;
82028;SDS011;71590;52.216;13.448;2023-08-24T20:14:19;5.93;;;4.85;;
82028;SDS011;71590;52.216;13.448;2023-08-24T20:19:20;6.73;;;4.73;;
82028;SDS011;71590;52.216;13.448;2023-08-24T20:24:21;4.18;;;3.83;;
82028;SDS011;71590;52.216;13.448;2023-08-24T20:29:22;7.15;;;4.05;;
82028;SDS011;71590;52.216;13.448;2023-08-24T20:34:23;6.07;;;4.93;;
82028;SDS011;71590;52.216;13.448;2023-08-24T20:39:24;4.80;;;4.40;;
82028;SDS011;71590;52.216;13.448;2023-08-24T20:44:25;4.38;;;3.85;;
82028;SDS011;71590;52.216;13.448;2023-08-24T20:49:26;3.92;;;3.53;;
82028;SDS011;71590;52.216;13.448;2023-08-24T20:54:27;5.50;;;3.97;;
82028;SDS011;71590;52.216;13.448;2023-08-24T20:59:28;6.43;;;4.18;;
82028;SDS011;71590;52.216;13.448;2023-08-24T21:04:31;5.47;;;3.78;;
82028;SDS011;71590;52.216;13.448;2023-08-24T21:09:33;4.43;;;4.03;;
82028;SDS011;71590;52.216;13.448;2023-08-24T21:14:34;4.95;;;4.55;;
82028;SDS011;71590;52.216;13.448;2023-08-24T21:19:36;5.38;;;4.28;;
82028;SDS011;71590;52.216;13.448;2023-08-24T21:24:37;4.80;;;4.40;;
82028;SDS011;71590;52.216;13.448;2023-08-24T21:29:38;5.05;;;3.88;;
82028;SDS011;71590;52.216;13.448;2023-08-24T21:34:41;4.47;;;4.07;;
82028;SDS011;71590;52.216;13.448;2023-08-24T21:39:42;5.85;;;4.13;;
82028;SDS011;71590;52.216;13.448;2023-08-24T21:44:43;9.55;;;4.65;;
82028;SDS011;71590;52.216;13.448;2023-08-24T21:49:44;4.50;;;4.07;;
82028;SDS011;71590;52.216;13.448;2023-08-24T21:54:45;4.35;;;3.75;;
82028;SDS011;71590;52.216;13.448;2023-08-24T21:59:46;7.13;;;4.10;;
82028;SDS011;71590;52.216;13.448;2023-08-24T22:04:47;5.03;;;3.73;;
82028;SDS011;71590;52.216;13.448;2023-08-24T22:09:48;4.93;;;4.43;;
82028;SDS011;71590;52.216;13.448;2023-08-24T22:14:50;7.68;;;4.15;;
82028;SDS011;71590;52.216;13.448;2023-08-24T22:19:51;8.55;;;4.53;;
82028;SDS011;71590;52.216;13.448;2023-08-24T22:24:52;6.47;;;4.07;;
82028;SDS011;71590;52.216;13.448;2023-08-24T22:29:53;6.43;;;4.25;;
82028;SDS011;71590;52.216;13.448;2023-08-24T22:34:54;4.30;;;3.97;;
82028;SDS011;71590;52.216;13.448;2023-08-24T22:39:54;4.72;;;4.20;;
82028;SDS011;71590;52.216;13.448;2023-08-24T22:44:56;5.30;;;4.18;;
82028;SDS011;71590;52.216;13.448;2023-08-24T22:49:57;6.20;;;4.63;;
82028;SDS011;71590;52.216;13.448;2023-08-24T22:54:58;5.65;;;4.60;;
82028;SDS011;71590;52.216;13.448;2023-08-24T22:59:59;5.05;;;4.55;;
82028;SDS011;71590;52.216;13.448;2023-08-24T23:05:00;5.53;;;4.22;;
82028;SDS011;71590;52.216;13.448;2023-08-24T23:10:02;5.38;;;4.18;;
82028;SDS011;71590;52.216;13.448;2023-08-24T23:15:06;9.15;;;4.35;;
82028;SDS011;71590;52.216;13.448;2023-08-24T23:20:10;6.13;;;4.50;;
82028;SDS011;71590;52.216;13.448;2023-08-24T23:25:11;6.85;;;4.45;;
82028;SDS011;71590;52.216;13.448;2023-08-24T23:30:12;5.45;;;3.95;;
82028;SDS011;71590;52.216;13.448;2023-08-24T23:35:13;9.75;;;4.80;;
82028;SDS011;71590;52.216;13.448;2023-08-24T23:40:14;4.55;;;4.20;;
82028;SDS011;71590;52.216;13.448;2023-08-24T23:45:16;5.40;;;4.20;;
82028;SDS011;71590;52.216;13.448;2023-08-24T23:50:17;7.60;;;5.05;;
82028;SDS011;71590;52.216;13.448;2023-08-24T23:55:18;6.00;;;4.55;;
